Warrenpoint, United Kingdom
Current Conditions -  °F | °C
As of 9:50 AM on Saturday 20 Dec 2014 (Local Time) from EGAC Reporting Station
Scattered Clouds Scattered Clouds  
Wind Chill: 38°   Ceiling: Unl
Heat Index: 45°   Visibility: 6mi
Dew Point: 37°   Wind: 13mph
Humidity: 76%   Direction: 270°W
Pressure: 30.21"   Gusts: NA
Location:  54.1°N, 6.25°W
Report Text: EGAC 200950Z 27011KT 220V290 9999 FEW023 SCT044 07/03 Q1023
Loading
Personal Weather Stations






























Interactive Weather Map New forecast layout! Learn more

10-Day Weather Forecast

Advertisements
Track Severe Weather on mobile